Time;durP1;ratioP1;P1;durP2;ratioP2;P2;SDS_P1;SDS_P2;PMS_P1;PMS_P2;Temp;Humidity;BMP_temperature;BMP_pressure;BME280_temperature;BME280_humidity;BME280_pressure;Samples;Min_cycle;Max_cycle;Signal;HPM_P1;HPM_P2
2022/03/27 00:02:20;;;;;;;;;;;;;;;;;;5011333;28;19910;-47
2022/03/27 00:04:47;;;;;;;;;;;;;;;;;;5011433;28;19956;-43
2022/03/27 00:07:13;;;;;;;;;;;;;;;;;;5009745;28;19923;-43
2022/03/27 00:09:40;;;;;;;;;;;;;;;;;;5010861;28;19909;-44
2022/03/27 00:12:06;;;;;;;;;;;;;;;;;;5011864;28;19913;-41
2022/03/27 00:14:33;;;;;;;;;;;;;;;;;;5011472;28;19999;-56
2022/03/27 00:16:59;;;;;;;;;;;;;;;;;;5009423;28;19985;-61
2022/03/27 00:19:26;;;;;;;;;;;;;;;;;;5009816;28;19917;-52
2022/03/27 00:21:52;;;;;;;;;;;;;;;;;;5011624;28;19917;-58
2022/03/27 00:24:19;;;;;;;;;;;;;;;;;;5012319;28;19913;-61
2022/03/27 00:26:46;;;;;;;;;;;;;;;;;;5009035;28;19979;-60
2022/03/27 00:29:15;;;;;;;;;;;;;;;;;;5011645;28;19910;-59
2022/03/27 00:31:41;;;;;;;;;;;;;;;;;;5012383;28;20307;-61
2022/03/27 00:34:07;;;;;;;;;;;;;;;;;;5012617;28;19909;-54
2022/03/27 00:36:34;;;;;;;;;;;;;;;;;;5011554;28;19913;-57
2022/03/27 00:39:00;;;;;;;;;;;;;;;;;;5012510;28;19925;-60
2022/03/27 00:41:27;;;;;;;;;;;;;;;;;;5012851;28;19909;-58
2022/03/27 00:43:53;;;;;;;;;;;;;;;;;;5012538;28;19941;-54
2022/03/27 00:46:20;;;;;;;;;;;;;;;;;;5012381;28;19925;-60
2022/03/27 00:48:46;;;;;;;;;;;;;;;;;;5012346;28;19913;-59
2022/03/27 00:51:13;;;;;;;;;;;;;;;;;;5012521;28;19910;-51
2022/03/27 00:53:39;;;;;;;;;;;;;;;;;;5012360;28;20320;-57
2022/03/27 00:56:06;;;;;;;;;;;;;;;;;;5012584;28;19936;-59
2022/03/27 00:58:32;;;;;;;;;;;;;;;;;;5012793;28;20012;-51
2022/03/27 01:00:59;;;;;;;;;;;;;;;;;;5011855;28;20422;-54
2022/03/27 01:03:26;;;;;;;;;;;;;;;;;;5011929;28;20284;-54
2022/03/27 01:05:52;;;;;;;;;;;;;;;;;;5012454;28;19925;-56
2022/03/27 01:09:35;;;;;;;;;;;;;;;;;;5012283;28;19935;-57
2022/03/27 01:11:08;;;;;;;;;;;;;;;;;;5011928;28;20404;-61
2022/03/27 01:13:35;;;;;;;;;;;;;;;;;;5012017;28;20365;-51
2022/03/27 01:16:02;;;;;;;;;;;;;;;;;;5013497;28;19906;-56
2022/03/27 01:18:29;;;;;;;;;;;;;;;;;;5016174;28;19932;-56
2022/03/27 01:20:56;;;;;;;;;;;;;;;;;;5016769;28;19982;-49
2022/03/27 01:23:23;;;;;;;;;;;;;;;;;;5015013;28;19916;-59
2022/03/27 01:25:49;;;;;;;;;;;;;;;;;;4997125;28;20067;-54
2022/03/27 01:28:16;;;;;;;;;;;;;;;;;;5008001;28;19914;-43
2022/03/27 01:30:42;;;;;;;;;;;;;;;;;;5013998;28;19909;-47
2022/03/27 01:33:13;;;;;;;;;;;;;;;;;;5011903;28;19914;-47
2022/03/27 01:35:39;;;;;;;;;;;;;;;;;;5013618;28;19996;-51
2022/03/27 01:38:06;;;;;;;;;;;;;;;;;;5012261;28;20128;-43
2022/03/27 01:40:33;;;;;;;;;;;;;;;;;;5010845;28;19948;-43
2022/03/27 01:42:59;;;;;;;;;;;;;;;;;;5011391;28;19920;-42
2022/03/27 01:45:27;;;;;;;;;;;;;;;;;;5014155;28;19960;-43
2022/03/27 01:47:54;;;;;;;;;;;;;;;;;;5013610;28;19917;-44
2022/03/27 01:50:20;;;;;;;;;;;;;;;;;;5013685;28;19917;-42
2022/03/27 01:52:47;;;;;;;;;;;;;;;;;;5010042;28;19925;-44
2022/03/27 01:55:16;;;;;;;;;;;;;;;;;;5013554;28;19921;-42
2022/03/27 01:57:42;;;;;;;;;;;;;;;;;;5012838;28;19956;-43
2022/03/27 02:00:09;;;;;;;;;;;;;;;;;;5011734;28;20263;-52
2022/03/27 02:02:35;;;;;;;;;;;;;;;;;;5009084;28;19924;-45
2022/03/27 02:05:02;;;;;;;;;;;;;;;;;;5013209;28;19990;-46
2022/03/27 02:07:29;;;;;;;;;;;;;;;;;;5012970;28;19917;-55
2022/03/27 02:09:55;;;;;;;;;;;;;;;;;;5013834;28;20414;-47
2022/03/27 02:12:22;;;;;;;;;;;;;;;;;;5008274;28;20300;-46
2022/03/27 02:14:48;;;;;;;;;;;;;;;;;;5012991;28;19910;-49
2022/03/27 02:17:14;;;;;;;;;;;;;;;;;;5013095;28;20356;-44
2022/03/27 02:19:41;;;;;;;;;;;;;;;;;;5013082;28;19975;-46
2022/03/27 02:22:07;;;;;;;;;;;;;;;;;;5008358;28;19921;-44
2022/03/27 02:24:34;;;;;;;;;;;;;;;;;;5012453;28;19952;-47
2022/03/27 02:27:00;;;;;;;;;;;;;;;;;;5013363;28;19972;-49
2022/03/27 02:29:27;;;;;;;;;;;;;;;;;;5012442;28;19915;-43
2022/03/27 02:31:54;;;;;;;;;;;;;;;;;;5013801;28;19912;-43
2022/03/27 02:34:20;;;;;;;;;;;;;;;;;;5014248;28;19917;-50
2022/03/27 02:36:47;;;;;;;;;;;;;;;;;;5015108;28;19948;-51
2022/03/27 02:39:13;;;;;;;;;;;;;;;;;;5014425;28;19921;-47
2022/03/27 02:41:40;;;;;;;;;;;;;;;;;;5014483;28;19906;-53
2022/03/27 02:44:07;;;;;;;;;;;;;;;;;;5014676;28;19921;-54
2022/03/27 02:46:34;;;;;;;;;;;;;;;;;;5014256;28;20012;-47
2022/03/27 02:49:00;;;;;;;;;;;;;;;;;;5014221;28;19978;-53
2022/03/27 02:51:27;;;;;;;;;;;;;;;;;;5014149;28;19913;-53
2022/03/27 02:53:53;;;;;;;;;;;;;;;;;;5014165;28;19959;-51
2022/03/27 02:56:20;;;;;;;;;;;;;;;;;;5014214;28;19910;-53
2022/03/27 02:58:46;;;;;;;;;;;;;;;;;;5014050;28;19914;-50
2022/03/27 03:01:13;;;;;;;;;;;;;;;;;;5014115;28;19914;-57
2022/03/27 03:03:42;;;;;;;;;;;;;;;;;;4995899;28;19909;-55
2022/03/27 03:06:08;;;;;;;;;;;;;;;;;;5013809;28;19924;-54
2022/03/27 03:08:35;;;;;;;;;;;;;;;;;;5013767;28;19960;-57
2022/03/27 03:11:02;;;;;;;;;;;;;;;;;;5013486;28;19910;-46
2022/03/27 03:13:28;;;;;;;;;;;;;;;;;;5013320;28;19964;-52
2022/03/27 03:15:55;;;;;;;;;;;;;;;;;;5013727;28;19996;-47
2022/03/27 03:18:21;;;;;;;;;;;;;;;;;;5014048;28;20307;-53
2022/03/27 03:20:48;;;;;;;;;;;;;;;;;;5013933;28;19917;-48
2022/03/27 03:23:14;;;;;;;;;;;;;;;;;;5013359;28;19963;-49
2022/03/27 03:25:42;;;;;;;;;;;;;;;;;;5013492;28;19921;-54
2022/03/27 03:28:09;;;;;;;;;;;;;;;;;;5014094;28;20313;-57
2022/03/27 03:30:35;;;;;;;;;;;;;;;;;;5013821;28;20285;-56
2022/03/27 03:33:02;;;;;;;;;;;;;;;;;;5013671;28;19963;-53
2022/03/27 03:35:29;;;;;;;;;;;;;;;;;;5013402;28;20315;-50
2022/03/27 03:37:56;;;;;;;;;;;;;;;;;;4995602;28;20409;-48
2022/03/27 03:40:23;;;;;;;;;;;;;;;;;;5013014;28;20224;-49
2022/03/27 03:42:49;;;;;;;;;;;;;;;;;;5013360;28;19909;-52
2022/03/27 03:45:16;;;;;;;;;;;;;;;;;;5013105;28;20025;-53
2022/03/27 03:47:42;;;;;;;;;;;;;;;;;;5012989;28;19918;-52
2022/03/27 03:50:10;;;;;;;;;;;;;;;;;;5013072;28;20315;-53
2022/03/27 03:52:36;;;;;;;;;;;;;;;;;;5012962;28;19917;-52
2022/03/27 03:55:03;;;;;;;;;;;;;;;;;;5012861;28;19964;-49
2022/03/27 03:57:30;;;;;;;;;;;;;;;;;;5012681;28;20292;-48
2022/03/27 03:59:56;;;;;;;;;;;;;;;;;;5013111;28;19913;-51
2022/03/27 04:02:23;;;;;;;;;;;;;;;;;;5013072;28;20318;-53
2022/03/27 04:04:49;;;;;;;;;;;;;;;;;;5013001;28;20352;-51
2022/03/27 04:07:16;;;;;;;;;;;;;;;;;;5013076;28;20275;-50
2022/03/27 04:09:43;;;;;;;;;;;;;;;;;;5012519;28;19917;-50
2022/03/27 04:12:09;;;;;;;;;;;;;;;;;;5012568;28;19999;-49
2022/03/27 04:14:36;;;;;;;;;;;;;;;;;;4994765;28;20356;-52
2022/03/27 04:17:02;;;;;;;;;;;;;;;;;;5012940;28;20194;-49
2022/03/27 04:19:29;;;;;;;;;;;;;;;;;;5012481;28;20012;-54
2022/03/27 04:21:56;;;;;;;;;;;;;;;;;;5012511;28;19910;-53
2022/03/27 04:24:22;;;;;;;;;;;;;;;;;;4994694;28;19964;-51
2022/03/27 04:26:49;;;;;;;;;;;;;;;;;;5011814;28;19917;-54
2022/03/27 04:29:15;;;;;;;;;;;;;;;;;;5012517;28;19909;-53
2022/03/27 04:31:42;;;;;;;;;;;;;;;;;;5012299;28;19909;-51
2022/03/27 04:34:08;;;;;;;;;;;;;;;;;;5012473;28;20459;-51
2022/03/27 04:36:35;;;;;;;;;;;;;;;;;;5012539;28;19929;-51
2022/03/27 04:39:01;;;;;;;;;;;;;;;;;;5012247;28;20004;-51
2022/03/27 04:41:28;;;;;;;;;;;;;;;;;;5011990;28;19932;-54
2022/03/27 04:43:54;;;;;;;;;;;;;;;;;;5011803;28;19909;-48
2022/03/27 04:46:21;;;;;;;;;;;;;;;;;;5012275;28;20402;-48
2022/03/27 04:48:47;;;;;;;;;;;;;;;;;;5011769;28;19940;-48
2022/03/27 04:51:14;;;;;;;;;;;;;;;;;;5014301;28;19917;-48
2022/03/27 04:53:40;;;;;;;;;;;;;;;;;;5015993;28;20009;-47
2022/03/27 04:56:07;;;;;;;;;;;;;;;;;;5016526;28;19913;-51
2022/03/27 04:58:34;;;;;;;;;;;;;;;;;;5016591;28;19910;-44
2022/03/27 05:01:00;;;;;;;;;;;;;;;;;;5015841;28;20019;-45
2022/03/27 05:03:27;;;;;;;;;;;;;;;;;;5015906;28;20364;-53
2022/03/27 05:05:53;;;;;;;;;;;;;;;;;;5015934;28;20232;-51
2022/03/27 05:08:20;;;;;;;;;;;;;;;;;;5015786;28;19910;-57
2022/03/27 05:10:47;;;;;;;;;;;;;;;;;;5016555;28;19917;-55
2022/03/27 05:13:14;;;;;;;;;;;;;;;;;;5016535;28;19992;-54
2022/03/27 05:15:40;;;;;;;;;;;;;;;;;;5015293;28;19909;-55
2022/03/27 05:18:07;;;;;;;;;;;;;;;;;;5016052;28;19913;-57
2022/03/27 05:20:33;;;;;;;;;;;;;;;;;;5016552;28;20017;-53
2022/03/27 05:23:00;;;;;;;;;;;;;;;;;;5016354;28;19914;-57
2022/03/27 05:25:26;;;;;;;;;;;;;;;;;;5015447;28;20364;-58
2022/03/27 05:27:56;;;;;;;;;;;;;;;;;;5011842;28;20379;-56
2022/03/27 05:30:23;;;;;;;;;;;;;;;;;;5014208;28;19909;-56
2022/03/27 05:32:49;;;;;;;;;;;;;;;;;;5014418;28;20061;-56
2022/03/27 05:35:16;;;;;;;;;;;;;;;;;;5015464;28;20367;-54
2022/03/27 05:37:42;;;;;;;;;;;;;;;;;;5015434;28;20288;-54
2022/03/27 05:40:09;;;;;;;;;;;;;;;;;;5016077;28;19922;-61
2022/03/27 05:42:35;;;;;;;;;;;;;;;;;;5016183;28;19921;-55
2022/03/27 05:45:02;;;;;;;;;;;;;;;;;;5015350;28;19946;-56
2022/03/27 05:47:29;;;;;;;;;;;;;;;;;;5015667;28;20313;-56
2022/03/27 05:49:56;;;;;;;;;;;;;;;;;;5016190;28;19941;-59
2022/03/27 05:52:23;;;;;;;;;;;;;;;;;;5015288;28;19917;-55
2022/03/27 05:54:49;;;;;;;;;;;;;;;;;;5015937;28;19917;-56
2022/03/27 05:57:16;;;;;;;;;;;;;;;;;;5015684;28;19917;-56
2022/03/27 05:59:43;;;;;;;;;;;;;;;;;;5008816;28;19955;-50
2022/03/27 06:02:09;;;;;;;;;;;;;;;;;;5013406;28;19922;-40
2022/03/27 06:04:36;;;;;;;;;;;;;;;;;;5012891;28;19916;-46
2022/03/27 06:07:02;;;;;;;;;;;;;;;;;;5013312;28;19929;-46
2022/03/27 06:09:29;;;;;;;;;;;;;;;;;;5012580;28;19917;-40
2022/03/27 06:11:55;;;;;;;;;;;;;;;;;;5013389;28;19956;-51
2022/03/27 06:14:22;;;;;;;;;;;;;;;;;;5011010;28;20040;-45
2022/03/27 06:16:48;;;;;;;;;;;;;;;;;;5013577;28;19909;-43
2022/03/27 06:19:15;;;;;;;;;;;;;;;;;;5012248;28;19955;-47
2022/03/27 06:21:43;;;;;;;;;;;;;;;;;;5013274;28;20096;-44
2022/03/27 06:24:10;;;;;;;;;;;;;;;;;;5010401;28;20253;-48
2022/03/27 06:26:36;;;;;;;;;;;;;;;;;;5013433;28;19927;-42
2022/03/27 06:29:03;;;;;;;;;;;;;;;;;;5013533;28;19910;-42
2022/03/27 06:31:29;;;;;;;;;;;;;;;;;;4994538;28;20435;-46
2022/03/27 06:33:56;;;;;;;;;;;;;;;;;;5011260;28;20253;-45
2022/03/27 06:36:22;;;;;;;;;;;;;;;;;;5010881;28;20713;-44
2022/03/27 06:38:48;;;;;;;;;;;;;;;;;;5013153;28;19925;-42
2022/03/27 06:41:15;;;;;;;;;;;;;;;;;;5012664;28;20039;-48
2022/03/27 06:43:42;;;;;;;;;;;;;;;;;;5012772;28;20370;-44
2022/03/27 06:46:13;;;;;;;;;;;;;;;;;;5007878;28;20372;-40
2022/03/27 06:48:39;;;;;;;;;;;;;;;;;;5013140;28;20023;-39
2022/03/27 06:51:06;;;;;;;;;;;;;;;;;;5012530;28;19979;-54
2022/03/27 06:53:32;;;;;;;;;;;;;;;;;;5012463;28;19909;-50
2022/03/27 06:55:59;;;;;;;;;;;;;;;;;;5007979;28;20341;-55
2022/03/27 06:58:25;;;;;;;;;;;;;;;;;;5012527;28;19909;-44
2022/03/27 07:03:37;;;;;;;;;;;;;;;;;;5009309;28;19997;-43
2022/03/27 07:06:03;;;;;;;;;;;;;;;;;;5007446;28;19933;-40
2022/03/27 07:08:30;;;;;;;;;;;;;;;;;;5012806;28;19917;-41
2022/03/27 07:10:56;;;;;;;;;;;;;;;;;;5012090;28;19924;-43
2022/03/27 07:13:23;;;;;;;;;;;;;;;;;;5012322;28;19909;-41
2022/03/27 07:15:50;;;;;;;;;;;;;;;;;;5007233;28;19913;-47
2022/03/27 07:18:20;;;;;;;;;;;;;;;;;;5012697;28;19920;-44
2022/03/27 07:20:47;;;;;;;;;;;;;;;;;;5011408;28;19921;-42
2022/03/27 07:23:13;;;;;;;;;;;;;;;;;;5012490;28;19917;-46
2022/03/27 07:25:40;;;;;;;;;;;;;;;;;;5011670;28;20305;-55
2022/03/27 07:28:07;;;;;;;;;;;;;;;;;;5012379;28;19956;-54
2022/03/27 07:30:33;;;;;;;;;;;;;;;;;;5005176;28;19914;-45
2022/03/27 07:33:00;;;;;;;;;;;;;;;;;;5013588;28;19909;-56
2022/03/27 07:35:26;;;;;;;;;;;;;;;;;;5012390;28;19944;-58
2022/03/27 07:37:53;;;;;;;;;;;;;;;;;;5012271;28;19953;-57
2022/03/27 07:40:20;;;;;;;;;;;;;;;;;;5007150;28;19920;-50
2022/03/27 07:42:47;;;;;;;;;;;;;;;;;;4994363;28;20016;-50
2022/03/27 07:45:13;;;;;;;;;;;;;;;;;;5011488;28;19910;-51
2022/03/27 07:47:40;;;;;;;;;;;;;;;;;;4992087;28;19917;-40
2022/03/27 07:50:06;;;;;;;;;;;;;;;;;;5011183;28;19991;-44
2022/03/27 07:52:33;;;;;;;;;;;;;;;;;;5012186;28;19919;-45
2022/03/27 07:55:00;;;;;;;;;;;;;;;;;;5010329;28;19910;-42
2022/03/27 07:57:27;;;;;;;;;;;;;;;;;;5008581;28;19921;-47
2022/03/27 07:59:54;;;;;;;;;;;;;;;;;;5010717;28;19916;-46
2022/03/27 08:02:21;;;;;;;;;;;;;;;;;;5011445;28;19910;-42
2022/03/27 08:04:47;;;;;;;;;;;;;;;;;;5011356;28;19913;-55
2022/03/27 08:07:14;;;;;;;;;;;;;;;;;;5008635;28;19925;-54
2022/03/27 08:09:40;;;;;;;;;;;;;;;;;;5012515;28;20544;-56
2022/03/27 08:12:11;;;;;;;;;;;;;;;;;;4993190;28;19914;-57
2022/03/27 08:14:37;;;;;;;;;;;;;;;;;;5013047;28;20001;-54
2022/03/27 08:17:04;;;;;;;;;;;;;;;;;;5013099;28;19914;-54
2022/03/27 08:19:30;;;;;;;;;;;;;;;;;;5012836;28;19909;-55
2022/03/27 08:21:57;;;;;;;;;;;;;;;;;;5013180;28;19914;-55
2022/03/27 08:24:23;;;;;;;;;;;;;;;;;;5013003;28;20265;-54
2022/03/27 08:26:55;;;;;;;;;;;;;;;;;;5012439;28;19993;-56
2022/03/27 08:29:23;;;;;;;;;;;;;;;;;;5013022;28;19909;-56
2022/03/27 08:31:50;;;;;;;;;;;;;;;;;;5013024;28;19909;-49
2022/03/27 08:34:18;;;;;;;;;;;;;;;;;;5012294;28;19921;-59
2022/03/27 08:36:44;;;;;;;;;;;;;;;;;;5012967;28;19917;-52
2022/03/27 08:39:11;;;;;;;;;;;;;;;;;;5009646;28;19968;-43
2022/03/27 08:41:37;;;;;;;;;;;;;;;;;;5008703;28;19909;-45
2022/03/27 08:44:04;;;;;;;;;;;;;;;;;;5009432;28;19955;-49
2022/03/27 08:46:30;;;;;;;;;;;;;;;;;;5010354;28;19972;-47
2022/03/27 08:48:56;;;;;;;;;;;;;;;;;;5009874;28;20000;-43
2022/03/27 08:51:23;;;;;;;;;;;;;;;;;;5008481;28;19916;-44
2022/03/27 08:53:50;;;;;;;;;;;;;;;;;;5010819;28;19910;-51
2022/03/27 08:56:16;;;;;;;;;;;;;;;;;;5010256;28;19944;-51
2022/03/27 08:58:42;;;;;;;;;;;;;;;;;;5009361;28;19916;-54
2022/03/27 09:01:10;;;;;;;;;;;;;;;;;;5003110;28;19917;-40
2022/03/27 09:03:37;;;;;;;;;;;;;;;;;;5007769;28;20361;-41
2022/03/27 09:06:04;;;;;;;;;;;;;;;;;;5008893;28;19922;-44
2022/03/27 09:08:30;;;;;;;;;;;;;;;;;;4992852;28;19910;-42
2022/03/27 09:10:57;;;;;;;;;;;;;;;;;;5009922;28;19983;-48
2022/03/27 09:13:23;;;;;;;;;;;;;;;;;;5009289;28;19948;-42
2022/03/27 09:15:49;;;;;;;;;;;;;;;;;;5007528;28;19909;-45
2022/03/27 09:18:17;;;;;;;;;;;;;;;;;;5010757;28;19925;-42
2022/03/27 09:20:43;;;;;;;;;;;;;;;;;;5007984;28;19910;-45
2022/03/27 09:23:10;;;;;;;;;;;;;;;;;;5010362;28;19920;-43
2022/03/27 09:25:36;;;;;;;;;;;;;;;;;;5007049;28;19964;-43
2022/03/27 09:28:03;;;;;;;;;;;;;;;;;;5008880;28;19942;-41
2022/03/27 09:30:29;;;;;;;;;;;;;;;;;;5009888;28;19920;-40
2022/03/27 09:32:56;;;;;;;;;;;;;;;;;;5010682;28;19915;-46
2022/03/27 09:35:22;;;;;;;;;;;;;;;;;;5004126;28;19917;-51
2022/03/27 09:37:49;;;;;;;;;;;;;;;;;;5012449;28;19943;-51
2022/03/27 09:40:15;;;;;;;;;;;;;;;;;;5013224;28;20375;-47
2022/03/27 09:42:42;;;;;;;;;;;;;;;;;;5012394;28;20280;-43
2022/03/27 09:45:08;;;;;;;;;;;;;;;;;;5008681;28;19909;-42
2022/03/27 09:47:35;;;;;;;;;;;;;;;;;;5014013;28;19922;-48
2022/03/27 09:50:01;;;;;;;;;;;;;;;;;;5011799;28;19924;-41
2022/03/27 09:52:28;;;;;;;;;;;;;;;;;;5013860;28;19949;-41
2022/03/27 09:54:55;;;;;;;;;;;;;;;;;;5008054;28;19909;-42
2022/03/27 09:57:21;;;;;;;;;;;;;;;;;;5014082;28;19915;-43
2022/03/27 09:59:48;;;;;;;;;;;;;;;;;;5013728;28;19915;-46
2022/03/27 10:02:14;;;;;;;;;;;;;;;;;;5013048;28;19963;-50
2022/03/27 10:04:41;;;;;;;;;;;;;;;;;;5008367;28;19924;-44
2022/03/27 10:07:07;;;;;;;;;;;;;;;;;;5013942;28;20055;-47
2022/03/27 10:09:37;;;;;;;;;;;;;;;;;;5013782;28;19914;-42
2022/03/27 10:12:05;;;;;;;;;;;;;;;;;;5013257;28;20356;-57
2022/03/27 10:14:31;;;;;;;;;;;;;;;;;;5008291;28;21489;-44
2022/03/27 10:16:58;;;;;;;;;;;;;;;;;;5013910;28;19916;-55
2022/03/27 10:19:24;;;;;;;;;;;;;;;;;;5014011;28;20002;-51
2022/03/27 10:21:52;;;;;;;;;;;;;;;;;;5013538;28;19909;-56
2022/03/27 10:24:19;;;;;;;;;;;;;;;;;;5015032;28;19909;-54
2022/03/27 10:26:45;;;;;;;;;;;;;;;;;;5013838;28;19922;-55
2022/03/27 10:29:12;;;;;;;;;;;;;;;;;;5015548;28;19992;-56
2022/03/27 10:31:38;;;;;;;;;;;;;;;;;;5015078;28;19945;-60
2022/03/27 10:34:05;;;;;;;;;;;;;;;;;;5015100;28;19913;-41
2022/03/27 10:36:32;;;;;;;;;;;;;;;;;;5014754;28;19909;-58
2022/03/27 10:38:58;;;;;;;;;;;;;;;;;;5014604;28;19930;-56
2022/03/27 10:41:25;;;;;;;;;;;;;;;;;;5014692;28;20368;-42
2022/03/27 10:43:51;;;;;;;;;;;;;;;;;;5014943;28;19909;-52
2022/03/27 10:46:18;;;;;;;;;;;;;;;;;;5014649;28;20320;-54
2022/03/27 10:48:45;;;;;;;;;;;;;;;;;;5013176;28;19910;-51
2022/03/27 10:51:11;;;;;;;;;;;;;;;;;;5014801;28;20284;-55
2022/03/27 10:53:38;;;;;;;;;;;;;;;;;;5014347;28;20062;-52
2022/03/27 10:56:04;;;;;;;;;;;;;;;;;;5014934;28;19910;-47
2022/03/27 10:58:31;;;;;;;;;;;;;;;;;;5014506;28;19936;-52
2022/03/27 11:00:57;;;;;;;;;;;;;;;;;;5014452;28;19993;-51
2022/03/27 11:03:24;;;;;;;;;;;;;;;;;;5014750;28;19910;-57
2022/03/27 11:05:50;;;;;;;;;;;;;;;;;;5015055;28;20008;-46
2022/03/27 11:08:17;;;;;;;;;;;;;;;;;;5014831;28;19914;-44
2022/03/27 11:10:43;;;;;;;;;;;;;;;;;;5014523;28;19997;-52
2022/03/27 11:13:10;;;;;;;;;;;;;;;;;;5014644;28;19917;-48
2022/03/27 11:15:36;;;;;;;;;;;;;;;;;;5014312;28;20004;-49
2022/03/27 11:18:03;;;;;;;;;;;;;;;;;;5014059;28;19913;-42
2022/03/27 11:20:29;;;;;;;;;;;;;;;;;;5007069;28;19968;-43
2022/03/27 11:22:56;;;;;;;;;;;;;;;;;;5011046;28;19916;-46
2022/03/27 11:25:22;;;;;;;;;;;;;;;;;;5012825;28;20280;-40
2022/03/27 11:27:48;;;;;;;;;;;;;;;;;;5011829;28;19940;-46
2022/03/27 11:30:15;;;;;;;;;;;;;;;;;;5011719;28;19916;-41
2022/03/27 11:32:41;;;;;;;;;;;;;;;;;;5009836;28;19950;-48
2022/03/27 11:35:08;;;;;;;;;;;;;;;;;;5012597;28;19914;-42
2022/03/27 11:37:35;;;;;;;;;;;;;;;;;;5012367;28;20012;-44
2022/03/27 11:40:01;;;;;;;;;;;;;;;;;;5011446;28;19921;-54
2022/03/27 11:42:30;;;;;;;;;;;;;;;;;;5008824;28;19909;-47
2022/03/27 11:45:09;;;;;;;;;;;;;;;;;;5011587;28;19999;-40
2022/03/27 11:47:36;;;;;;;;;;;;;;;;;;5013073;28;19918;-53
2022/03/27 11:50:02;;;;;;;;;;;;;;;;;;5004279;28;19944;-44
2022/03/27 11:52:29;;;;;;;;;;;;;;;;;;4992931;28;19956;-45
2022/03/27 11:54:55;;;;;;;;;;;;;;;;;;4994261;28;19910;-41
2022/03/27 11:57:22;;;;;;;;;;;;;;;;;;4994186;28;19910;-51
2022/03/27 11:59:49;;;;;;;;;;;;;;;;;;4993313;28;20280;-49
2022/03/27 12:02:15;;;;;;;;;;;;;;;;;;4994078;28;19917;-46
2022/03/27 12:04:41;;;;;;;;;;;;;;;;;;4993724;28;19964;-55
2022/03/27 12:07:08;;;;;;;;;;;;;;;;;;4994099;28;19925;-48
2022/03/27 12:09:34;;;;;;;;;;;;;;;;;;4993938;28;19999;-46
2022/03/27 12:12:01;;;;;;;;;;;;;;;;;;4994152;28;19910;-52
2022/03/27 12:14:27;;;;;;;;;;;;;;;;;;4992711;28;19917;-48
2022/03/27 12:16:54;;;;;;;;;;;;;;;;;;4993748;28;19925;-55
2022/03/27 12:19:20;;;;;;;;;;;;;;;;;;4993286;28;19957;-51
2022/03/27 12:21:47;;;;;;;;;;;;;;;;;;4993353;28;19921;-46
2022/03/27 12:24:16;;;;;;;;;;;;;;;;;;4993721;28;19909;-52
2022/03/27 12:29:48;;;;;;;;;;;;;;;;;;4993136;28;20312;-50
2022/03/27 12:32:15;;;;;;;;;;;;;;;;;;4993583;28;19996;-51
2022/03/27 12:34:41;;;;;;;;;;;;;;;;;;4993272;28;20391;-46
2022/03/27 12:37:12;;;;;;;;;;;;;;;;;;4993649;28;19914;-53
2022/03/27 12:39:38;;;;;;;;;;;;;;;;;;4993526;28;20016;-60
2022/03/27 12:42:06;;;;;;;;;;;;;;;;;;4993832;28;19910;-52
2022/03/27 12:44:33;;;;;;;;;;;;;;;;;;4993698;28;19910;-48
2022/03/27 12:46:59;;;;;;;;;;;;;;;;;;4993635;28;19922;-47
2022/03/27 12:49:26;;;;;;;;;;;;;;;;;;4993160;28;19917;-54
2022/03/27 12:51:53;;;;;;;;;;;;;;;;;;4990677;28;19975;-40
2022/03/27 12:54:19;;;;;;;;;;;;;;;;;;5010159;28;19997;-41
2022/03/27 12:56:55;;;;;;;;;;;;;;;;;;5012528;28;19917;-55
2022/03/27 12:59:21;;;;;;;;;;;;;;;;;;5011825;28;19909;-55
2022/03/27 13:01:48;;;;;;;;;;;;;;;;;;5012648;28;19956;-52
2022/03/27 13:04:14;;;;;;;;;;;;;;;;;;5012800;28;19909;-53
2022/03/27 13:06:43;;;;;;;;;;;;;;;;;;5012936;28;19940;-49
2022/03/27 13:09:09;;;;;;;;;;;;;;;;;;5013091;28;19955;-55
2022/03/27 13:11:36;;;;;;;;;;;;;;;;;;5013382;28;20270;-53
2022/03/27 13:14:02;;;;;;;;;;;;;;;;;;5016893;28;19909;-54
2022/03/27 13:16:29;;;;;;;;;;;;;;;;;;5016987;28;19905;-53
2022/03/27 13:18:56;;;;;;;;;;;;;;;;;;5011317;28;20008;-43
2022/03/27 13:21:22;;;;;;;;;;;;;;;;;;5013512;28;19955;-41
2022/03/27 13:23:49;;;;;;;;;;;;;;;;;;5010844;28;19972;-44
2022/03/27 13:26:16;;;;;;;;;;;;;;;;;;5013718;28;19964;-45
2022/03/27 13:28:42;;;;;;;;;;;;;;;;;;5012464;28;19963;-48
2022/03/27 13:31:09;;;;;;;;;;;;;;;;;;5013064;28;19993;-43
2022/03/27 13:33:35;;;;;;;;;;;;;;;;;;5013856;28;20298;-55
2022/03/27 13:36:02;;;;;;;;;;;;;;;;;;5009612;28;20280;-44
2022/03/27 13:38:28;;;;;;;;;;;;;;;;;;4997223;28;19918;-56
2022/03/27 13:43:40;;;;;;;;;;;;;;;;;;5013757;28;19964;-49
2022/03/27 13:46:06;;;;;;;;;;;;;;;;;;5008583;28;20013;-44
2022/03/27 13:48:33;;;;;;;;;;;;;;;;;;5013942;28;19910;-44
2022/03/27 13:50:59;;;;;;;;;;;;;;;;;;5009783;28;19917;-42
2022/03/27 13:53:26;;;;;;;;;;;;;;;;;;5014702;28;19910;-53
2022/03/27 13:55:53;;;;;;;;;;;;;;;;;;5009270;28;19944;-45
2022/03/27 13:58:19;;;;;;;;;;;;;;;;;;5013315;28;20013;-45
2022/03/27 14:00:46;;;;;;;;;;;;;;;;;;5009581;28;19913;-41
2022/03/27 14:03:12;;;;;;;;;;;;;;;;;;5014616;28;20178;-45
2022/03/27 14:05:39;;;;;;;;;;;;;;;;;;5009541;28;19940;-38
2022/03/27 14:08:05;;;;;;;;;;;;;;;;;;5014225;28;19987;-48
2022/03/27 14:10:32;;;;;;;;;;;;;;;;;;5008661;28;20371;-45
2022/03/27 14:12:59;;;;;;;;;;;;;;;;;;5014021;28;19917;-41
2022/03/27 14:15:25;;;;;;;;;;;;;;;;;;5008800;28;19918;-46
2022/03/27 14:17:51;;;;;;;;;;;;;;;;;;5014058;28;19910;-55
2022/03/27 14:20:18;;;;;;;;;;;;;;;;;;5009417;28;20015;-38
2022/03/27 14:22:44;;;;;;;;;;;;;;;;;;5012743;28;19927;-44
2022/03/27 14:25:11;;;;;;;;;;;;;;;;;;5010198;28;19996;-52
2022/03/27 14:27:39;;;;;;;;;;;;;;;;;;5013427;28;20004;-38
2022/03/27 14:30:05;;;;;;;;;;;;;;;;;;5013291;28;19920;-48
2022/03/27 14:32:31;;;;;;;;;;;;;;;;;;5014551;28;20375;-51
2022/03/27 14:34:58;;;;;;;;;;;;;;;;;;5008557;28;20357;-43
2022/03/27 14:37:25;;;;;;;;;;;;;;;;;;5013461;28;20324;-42
2022/03/27 14:39:52;;;;;;;;;;;;;;;;;;5008272;28;19926;-41
2022/03/27 14:42:18;;;;;;;;;;;;;;;;;;5013420;28;19914;-40
2022/03/27 14:44:44;;;;;;;;;;;;;;;;;;5009392;28;20004;-38
2022/03/27 14:47:11;;;;;;;;;;;;;;;;;;5012179;28;19928;-39
2022/03/27 14:49:37;;;;;;;;;;;;;;;;;;5008123;28;19996;-39
2022/03/27 14:52:04;;;;;;;;;;;;;;;;;;5013027;28;19914;-40
2022/03/27 14:57:16;;;;;;;;;;;;;;;;;;5011662;28;20000;-43
2022/03/27 14:59:42;;;;;;;;;;;;;;;;;;5006835;28;19967;-41
2022/03/27 15:02:09;;;;;;;;;;;;;;;;;;5013258;28;19920;-43
2022/03/27 15:04:35;;;;;;;;;;;;;;;;;;5013859;28;19913;-48
2022/03/27 15:07:02;;;;;;;;;;;;;;;;;;5013821;28;19976;-43
2022/03/27 15:09:28;;;;;;;;;;;;;;;;;;5014236;28;20264;-46
2022/03/27 15:11:55;;;;;;;;;;;;;;;;;;5014893;28;19992;-47
2022/03/27 15:14:21;;;;;;;;;;;;;;;;;;5014673;28;19970;-56
2022/03/27 15:16:47;;;;;;;;;;;;;;;;;;5014697;28;19916;-50
2022/03/27 15:19:14;;;;;;;;;;;;;;;;;;5014934;28;19910;-56
2022/03/27 15:21:40;;;;;;;;;;;;;;;;;;5014534;28;19917;-57
2022/03/27 15:24:07;;;;;;;;;;;;;;;;;;5014695;28;19920;-57
2022/03/27 15:26:35;;;;;;;;;;;;;;;;;;5014714;28;19921;-57
2022/03/27 15:29:02;;;;;;;;;;;;;;;;;;5014369;28;20033;-54
2022/03/27 15:31:28;;;;;;;;;;;;;;;;;;5013316;28;20005;-55
2022/03/27 15:33:55;;;;;;;;;;;;;;;;;;5014485;28;19996;-49
2022/03/27 15:36:21;;;;;;;;;;;;;;;;;;5014329;28;20268;-55
2022/03/27 15:38:48;;;;;;;;;;;;;;;;;;5014129;28;19921;-47
2022/03/27 15:41:14;;;;;;;;;;;;;;;;;;5014436;28;19917;-51
2022/03/27 15:43:40;;;;;;;;;;;;;;;;;;5014052;28;19910;-55
2022/03/27 15:46:07;;;;;;;;;;;;;;;;;;5014182;28;19967;-56
2022/03/27 15:48:33;;;;;;;;;;;;;;;;;;5014363;28;19909;-41
2022/03/27 15:51:00;;;;;;;;;;;;;;;;;;5014161;28;19955;-51
2022/03/27 15:53:26;;;;;;;;;;;;;;;;;;5013786;28;19917;-55
2022/03/27 15:55:55;;;;;;;;;;;;;;;;;;5014340;28;19910;-52
2022/03/27 15:58:21;;;;;;;;;;;;;;;;;;5013921;28;19952;-44
2022/03/27 16:00:48;;;;;;;;;;;;;;;;;;5013817;28;19917;-40
2022/03/27 16:03:14;;;;;;;;;;;;;;;;;;5014261;28;19963;-48
2022/03/27 16:05:41;;;;;;;;;;;;;;;;;;5013850;28;19913;-51
2022/03/27 16:08:08;;;;;;;;;;;;;;;;;;5013808;28;19953;-47
2022/03/27 16:10:34;;;;;;;;;;;;;;;;;;5013865;28;19914;-55
2022/03/27 16:13:01;;;;;;;;;;;;;;;;;;5013657;28;20364;-53
2022/03/27 16:15:28;;;;;;;;;;;;;;;;;;5013584;28;19909;-52
2022/03/27 16:17:55;;;;;;;;;;;;;;;;;;5013907;28;19913;-55
2022/03/27 16:20:22;;;;;;;;;;;;;;;;;;5013716;28;19909;-48
2022/03/27 16:22:48;;;;;;;;;;;;;;;;;;5013812;28;19909;-52
2022/03/27 16:25:15;;;;;;;;;;;;;;;;;;5013667;28;20063;-46
2022/03/27 16:27:41;;;;;;;;;;;;;;;;;;5013057;28;19940;-55
2022/03/27 16:30:08;;;;;;;;;;;;;;;;;;5013884;28;19978;-51
2022/03/27 16:32:34;;;;;;;;;;;;;;;;;;5013539;28;19920;-44
2022/03/27 16:35:01;;;;;;;;;;;;;;;;;;5013274;28;19931;-55
2022/03/27 16:37:27;;;;;;;;;;;;;;;;;;5013286;28;19965;-45
2022/03/27 16:39:54;;;;;;;;;;;;;;;;;;5013449;28;20430;-54
2022/03/27 16:42:20;;;;;;;;;;;;;;;;;;5013294;28;19910;-54
2022/03/27 16:44:47;;;;;;;;;;;;;;;;;;5013296;28;19914;-54
2022/03/27 16:47:13;;;;;;;;;;;;;;;;;;5012423;28;19917;-56
2022/03/27 16:49:40;;;;;;;;;;;;;;;;;;5013145;28;19909;-51
2022/03/27 16:52:06;;;;;;;;;;;;;;;;;;5013657;28;19953;-57
2022/03/27 16:54:33;;;;;;;;;;;;;;;;;;5013190;28;19906;-57